Terminal Aerodrome Forecast
Issued by NWS Blacksburg, VA

Home | Current Version | Previous Version | Text Only | Print | Product List | Glossary On
Versions: 1 2 3 4 5 6 7 8 9 10 11 12 13 14 15 16 17 18 19 20 21 22
000
FTUS41 KRNK 011527 AAB
TAFBLF
TAF AMD
KBLF 011527Z 0115/0212 23006KT P6SM BKN025
      TEMPO 0116/0117 SCT025 BKN080
     FM011900 24007KT P6SM VCSH BKN040
      TEMPO 0122/0124 2SM SHRA BR OVC015
     FM020200 25007KT P6SM SCT015 BKN250
     FM020600 24006KT P6SM OVC015=

USA.gov is the U.S. government's official web portal to all federal, state and local government web resources and services.